createdAt,value
2018-09-25T00:01:07.412Z,1.00
2018-09-25T00:03:41.371Z,1.77
2018-09-25T00:06:15.163Z,0.93
2018-09-25T00:08:49.004Z,0.90
2018-09-25T00:11:22.877Z,0.80
2018-09-25T00:13:56.729Z,1.00
2018-09-25T00:16:30.614Z,1.00
2018-09-25T00:19:04.572Z,0.93
2018-09-25T00:21:38.503Z,1.00
2018-09-25T00:24:12.520Z,1.17
2018-09-25T00:26:46.306Z,0.80
2018-09-25T00:29:20.149Z,1.13
2018-09-25T00:31:53.942Z,0.80
2018-09-25T00:34:27.784Z,1.10
2018-09-25T00:37:01.571Z,1.00
2018-09-25T00:39:35.292Z,1.20
2018-09-25T00:42:09.347Z,1.37
2018-09-25T00:44:43.374Z,1.00
2018-09-25T00:47:17.246Z,0.83
2018-09-25T00:49:51.145Z,1.00
2018-09-25T00:52:25.010Z,1.10
2018-09-25T00:54:58.976Z,1.10
2018-09-25T00:57:32.876Z,0.90
2018-09-25T01:00:18.858Z,1.37
2018-09-25T01:02:52.930Z,1.23
2018-09-25T01:05:26.788Z,1.30
2018-09-25T01:08:00.833Z,1.40
2018-09-25T01:10:34.819Z,1.23
2018-09-25T01:13:08.891Z,1.33
2018-09-25T01:15:42.885Z,1.20
2018-09-25T01:18:16.852Z,1.30
2018-09-25T01:20:50.719Z,1.20
2018-09-25T01:23:24.657Z,1.03
2018-09-25T01:25:58.461Z,0.90
2018-09-25T01:28:32.305Z,1.20
2018-09-25T01:31:06.175Z,0.80
2018-09-25T01:33:40.139Z,1.30
2018-09-25T01:36:14.140Z,1.67
2018-09-25T01:38:47.964Z,1.17
2018-09-25T01:41:21.983Z,1.20
2018-09-25T01:43:55.974Z,1.30
2018-09-25T01:46:29.933Z,1.10
2018-09-25T01:49:03.810Z,1.27
2018-09-25T01:51:37.679Z,0.90
2018-09-25T01:54:11.664Z,0.90
2018-09-25T01:56:45.382Z,1.10
2018-09-25T01:59:19.225Z,1.00
2018-09-25T02:01:54.292Z,0.90
2018-09-25T02:04:28.172Z,0.90
2018-09-25T02:07:01.984Z,0.80
2018-09-25T02:09:35.953Z,1.20
2018-09-25T02:12:09.970Z,0.90
2018-09-25T02:14:43.812Z,1.20
2018-09-25T02:17:17.584Z,1.10
2018-09-25T02:19:51.442Z,1.00
2018-09-25T02:22:25.232Z,1.00
2018-09-25T02:24:59.206Z,1.10
2018-09-25T02:27:32.971Z,1.13
2018-09-25T02:30:06.915Z,1.07
2018-09-25T02:32:40.855Z,0.90
2018-09-25T02:35:14.875Z,1.37
2018-09-25T02:37:48.747Z,2.60
2018-09-25T02:40:22.533Z,1.30
2018-09-25T02:42:56.300Z,2.00
2018-09-25T02:45:30.282Z,1.13
2018-09-25T02:48:04.084Z,1.60
2018-09-25T02:50:37.956Z,1.50
2018-09-25T02:53:11.864Z,2.03
2018-09-25T02:55:45.685Z,1.60
2018-09-25T02:58:19.624Z,1.40
2018-09-25T03:00:53.675Z,1.30
2018-09-25T03:03:27.503Z,1.30
2018-09-25T03:06:01.381Z,1.50
2018-09-25T03:08:35.327Z,1.50
2018-09-25T03:11:09.085Z,1.43
2018-09-25T03:13:43.063Z,1.50
2018-09-25T03:16:16.921Z,1.50
2018-09-25T03:18:50.697Z,1.70
2018-09-25T03:21:24.732Z,1.33
2018-09-25T03:23:58.913Z,1.40
2018-09-25T03:26:32.684Z,1.40
2018-09-25T03:29:06.587Z,1.70
2018-09-25T03:31:40.635Z,1.30
2018-09-25T03:34:14.515Z,1.20
2018-09-25T03:36:48.217Z,1.43
2018-09-25T03:39:22.004Z,1.43
2018-09-25T03:41:55.717Z,0.90
2018-09-25T03:44:29.745Z,1.07
2018-09-25T03:47:03.759Z,1.30
2018-09-25T03:49:37.756Z,1.00
2018-09-25T03:52:11.590Z,1.17
2018-09-25T03:54:45.409Z,1.23
2018-09-25T03:57:19.448Z,1.20
2018-09-25T03:59:53.189Z,1.40
2018-09-25T04:02:26.982Z,1.33
2018-09-25T04:05:00.774Z,1.30
2018-09-25T04:07:34.794Z,1.50
2018-09-25T04:10:08.839Z,1.77
2018-09-25T04:12:42.716Z,1.27
2018-09-25T04:15:16.593Z,1.30
2018-09-25T04:17:50.627Z,1.23
2018-09-25T04:20:24.313Z,1.63
2018-09-25T04:22:58.104Z,2.30
2018-09-25T04:25:31.922Z,3.10
2018-09-25T04:28:05.880Z,2.70
2018-09-25T04:30:39.775Z,2.37
2018-09-25T04:33:13.684Z,2.63
2018-09-25T04:35:47.486Z,2.73
2018-09-25T04:38:21.421Z,3.03
2018-09-25T04:40:55.373Z,2.50
2018-09-25T04:43:29.263Z,2.37
2018-09-25T04:46:03.209Z,2.17
2018-09-25T04:48:37.068Z,2.43
2018-09-25T04:51:11.068Z,2.80
2018-09-25T04:53:44.954Z,2.10
2018-09-25T04:56:18.730Z,2.13
2018-09-25T04:58:52.689Z,2.00
2018-09-25T05:01:26.648Z,2.30
2018-09-25T05:04:00.673Z,1.80
2018-09-25T05:06:34.545Z,1.60
2018-09-25T05:09:08.308Z,2.00
2018-09-25T05:11:42.276Z,1.73
2018-09-25T05:14:16.293Z,1.70
2018-09-25T05:16:50.232Z,1.80
2018-09-25T05:19:24.202Z,1.30
2018-09-25T05:21:58.094Z,1.73
2018-09-25T05:24:31.942Z,1.63
2018-09-25T05:27:05.738Z,1.50
2018-09-25T05:29:39.570Z,1.57
2018-09-25T05:32:13.309Z,1.93
2018-09-25T05:34:47.113Z,1.30
2018-09-25T05:37:21.002Z,1.30
2018-09-25T05:39:55.064Z,1.47
2018-09-25T05:42:28.881Z,1.70
2018-09-25T05:45:02.903Z,1.43
2018-09-25T05:47:36.893Z,1.87
2018-09-25T05:50:10.935Z,1.77
2018-09-25T05:52:44.759Z,1.40
2018-09-25T05:55:18.689Z,1.63
2018-09-25T05:57:52.593Z,1.90
2018-09-25T06:00:26.453Z,1.70
2018-09-25T06:03:00.325Z,1.60
2018-09-25T06:05:34.168Z,1.40
2018-09-25T06:08:07.959Z,1.70
2018-09-25T06:10:41.870Z,1.80
2018-09-25T06:13:15.717Z,1.50
2018-09-25T06:15:49.709Z,1.60
2018-09-25T06:18:23.600Z,1.80
2018-09-25T06:20:57.497Z,1.53
2018-09-25T06:23:31.424Z,1.57
2018-09-25T06:26:05.183Z,1.30
2018-09-25T06:28:39.180Z,1.83
2018-09-25T06:31:13.556Z,1.60
2018-09-25T06:33:47.524Z,1.77
2018-09-25T06:36:21.204Z,1.63
2018-09-25T06:38:55.040Z,1.80
2018-09-25T06:41:28.909Z,1.50
2018-09-25T06:44:02.864Z,1.50
2018-09-25T06:46:36.725Z,1.80
2018-09-25T06:49:10.714Z,1.70
2018-09-25T06:56:01.007Z,2.00
2018-09-25T06:58:34.958Z,1.70
2018-09-25T07:01:08.900Z,1.60
2018-09-25T07:03:42.892Z,1.77
2018-09-25T07:06:16.629Z,1.77
2018-09-25T07:08:50.602Z,2.20
2018-09-25T07:11:24.573Z,1.77
2018-09-25T07:13:58.379Z,1.53
2018-09-25T07:16:32.238Z,1.50
2018-09-25T07:19:06.197Z,1.50
2018-09-25T07:21:40.066Z,1.80
2018-09-25T07:24:13.828Z,1.67
2018-09-25T07:26:47.697Z,1.33
2018-09-25T07:29:21.545Z,1.07
2018-09-25T07:31:55.632Z,1.70
2018-09-25T07:34:29.353Z,1.40
2018-09-25T07:37:03.117Z,1.73
2018-09-25T07:39:37.002Z,1.43
2018-09-25T07:42:10.983Z,1.70
2018-09-25T07:44:44.826Z,1.77
2018-09-25T07:47:18.661Z,1.60
2018-09-25T07:49:52.560Z,1.90
2018-09-25T07:52:26.361Z,1.40
2018-09-25T07:55:00.189Z,1.93
2018-09-25T07:57:34.114Z,1.30
2018-09-25T08:00:08.054Z,1.10
2018-09-25T08:02:41.976Z,1.83
2018-09-25T08:05:15.813Z,1.10
2018-09-25T08:07:49.673Z,1.37
2018-09-25T08:10:23.523Z,1.47
2018-09-25T08:12:57.484Z,1.60
2018-09-25T08:15:31.541Z,1.30
2018-09-25T08:18:05.403Z,1.40
2018-09-25T08:20:39.318Z,1.23
2018-09-25T08:23:13.261Z,1.20
2018-09-25T08:25:47.060Z,1.30
2018-09-25T08:28:21.097Z,1.37
2018-09-25T08:30:55.017Z,0.93
2018-09-25T08:33:28.933Z,1.10
2018-09-25T08:36:02.737Z,0.97
2018-09-25T08:38:36.788Z,1.30
2018-09-25T08:41:10.663Z,1.20
2018-09-25T08:43:44.548Z,1.20
2018-09-25T08:46:18.426Z,0.90
2018-09-25T08:48:52.263Z,0.73
2018-09-25T08:51:26.177Z,1.10
2018-09-25T08:54:00.064Z,0.80
2018-09-25T08:56:34.076Z,0.80
2018-09-25T08:59:08.035Z,1.63
2018-09-25T09:01:41.974Z,1.00
2018-09-25T09:04:15.821Z,0.70
2018-09-25T09:06:49.833Z,0.80
2018-09-25T09:09:23.801Z,0.80
2018-09-25T09:11:57.757Z,1.07
2018-09-25T09:14:31.633Z,0.90
2018-09-25T09:17:05.403Z,0.70
2018-09-25T09:19:39.419Z,0.90
2018-09-25T09:22:13.437Z,1.07
2018-09-25T09:24:47.336Z,0.90
2018-09-25T09:27:21.177Z,0.80
2018-09-25T09:29:54.983Z,1.27
2018-09-25T09:32:28.933Z,0.80
2018-09-25T09:35:02.876Z,0.73
2018-09-25T09:37:36.989Z,0.90
2018-09-25T09:40:11.310Z,0.90
2018-09-25T09:42:45.326Z,0.70
2018-09-25T09:45:19.221Z,0.80
2018-09-25T09:47:53.213Z,0.80
2018-09-25T09:50:27.169Z,0.80
2018-09-25T09:53:01.152Z,0.93
2018-09-25T09:55:35.129Z,0.70
2018-09-25T09:58:08.964Z,0.87
2018-09-25T10:00:42.770Z,0.70
2018-09-25T10:03:16.513Z,0.67
2018-09-25T10:05:50.489Z,0.70
2018-09-25T10:08:24.430Z,0.67
2018-09-25T10:10:58.319Z,0.67
2018-09-25T10:13:32.266Z,0.80
2018-09-25T10:16:06.185Z,1.00
2018-09-25T10:18:40.264Z,0.67
2018-09-25T10:21:14.113Z,0.63
2018-09-25T10:23:48.161Z,0.60
2018-09-25T10:26:22.152Z,0.80
2018-09-25T10:28:56.069Z,0.70
2018-09-25T10:31:30.010Z,0.87
2018-09-25T10:34:04.079Z,1.00
2018-09-25T10:36:38.001Z,0.90
2018-09-25T10:39:14.167Z,0.70
2018-09-25T10:41:48.081Z,0.97
2018-09-25T10:44:22.000Z,0.93
2018-09-25T10:46:55.968Z,0.80
2018-09-25T10:49:29.834Z,0.77
2018-09-25T10:52:03.757Z,0.70
2018-09-25T10:54:37.673Z,0.60
2018-09-25T10:57:11.383Z,0.93
2018-09-25T10:59:45.360Z,0.60
2018-09-25T11:02:19.202Z,0.80
2018-09-25T11:04:53.201Z,0.70
2018-09-25T11:07:27.218Z,1.13
2018-09-25T11:10:01.155Z,0.80
2018-09-25T11:12:35.004Z,0.70
2018-09-25T11:15:08.848Z,0.50
2018-09-25T11:17:42.786Z,0.60
2018-09-25T11:20:16.593Z,0.90
2018-09-25T11:22:50.546Z,0.80
2018-09-25T11:25:24.394Z,0.77
2018-09-25T11:27:58.177Z,0.90
2018-09-25T11:30:32.146Z,1.10
2018-09-25T11:33:06.165Z,0.80
2018-09-25T11:35:39.978Z,0.70
2018-09-25T11:38:13.777Z,0.77
2018-09-25T11:40:47.671Z,0.90
2018-09-25T11:43:21.552Z,1.10
2018-09-25T11:45:55.356Z,0.90
2018-09-25T11:48:29.166Z,0.70
2018-09-25T11:51:03.228Z,0.67
2018-09-25T11:53:37.001Z,0.70
2018-09-25T11:56:10.851Z,1.00
2018-09-25T11:58:44.666Z,0.80
2018-09-25T12:01:18.502Z,0.90
2018-09-25T12:03:52.452Z,0.50
2018-09-25T12:06:26.439Z,0.77
2018-09-25T12:09:00.476Z,0.50
2018-09-25T12:11:34.422Z,0.70
2018-09-25T12:14:08.294Z,0.70
2018-09-25T12:16:42.339Z,0.70
2018-09-25T12:19:16.155Z,0.80
2018-09-25T12:21:50.190Z,0.80
2018-09-25T12:24:24.032Z,0.80
2018-09-25T12:26:57.924Z,0.80
2018-09-25T12:29:31.697Z,1.10
2018-09-25T12:32:05.514Z,0.97
2018-09-25T12:34:39.462Z,0.70
2018-09-25T12:37:13.400Z,0.70
2018-09-25T12:39:47.197Z,0.90
2018-09-25T12:42:20.887Z,1.07
2018-09-25T12:44:54.830Z,1.00
2018-09-25T12:47:28.673Z,0.83
2018-09-25T12:50:02.596Z,0.60
2018-09-25T12:52:36.545Z,0.60
2018-09-25T12:55:10.556Z,0.70
2018-09-25T12:57:44.420Z,0.80
2018-09-25T13:00:18.384Z,0.60
2018-09-25T13:02:52.395Z,0.70
2018-09-25T13:05:26.321Z,0.70
2018-09-25T13:08:00.361Z,0.57
2018-09-25T13:10:34.159Z,1.23
2018-09-25T13:13:08.148Z,0.90
2018-09-25T13:15:42.002Z,0.77
2018-09-25T13:18:15.933Z,0.87
2018-09-25T13:20:49.924Z,0.50
2018-09-25T13:23:23.869Z,0.80
2018-09-25T13:25:57.862Z,0.87
2018-09-25T13:28:31.825Z,0.60
2018-09-25T13:31:05.621Z,0.90
2018-09-25T13:33:39.410Z,0.70
2018-09-25T13:36:13.454Z,0.63
2018-09-25T13:38:47.426Z,0.70
2018-09-25T13:41:21.265Z,0.80
2018-09-25T13:43:55.278Z,0.63
2018-09-25T13:46:29.379Z,0.93
2018-09-25T13:49:03.389Z,0.70
2018-09-25T13:51:37.164Z,0.70
2018-09-25T13:54:11.204Z,0.50
2018-09-25T13:56:45.244Z,0.67
2018-09-25T13:59:19.189Z,0.60
2018-09-25T14:01:53.132Z,0.80
2018-09-25T14:04:27.051Z,0.60
2018-09-25T14:07:01.020Z,0.77
2018-09-25T14:09:34.938Z,0.80
2018-09-25T14:12:08.884Z,0.80
2018-09-25T14:14:42.789Z,0.90
2018-09-25T14:17:16.752Z,0.67
2018-09-25T14:19:50.717Z,0.90
2018-09-25T14:22:24.574Z,0.80
2018-09-25T14:24:58.521Z,0.77
2018-09-25T14:27:32.436Z,0.90
2018-09-25T14:30:06.105Z,0.90
2018-09-25T14:32:40.144Z,0.90
2018-09-25T14:35:14.093Z,0.80
2018-09-25T14:37:48.012Z,0.87
2018-09-25T14:40:21.994Z,0.83
2018-09-25T14:42:55.994Z,0.80
2018-09-25T14:45:29.881Z,0.70
2018-09-25T14:48:03.711Z,1.20
2018-09-25T14:50:37.599Z,0.80
2018-09-25T14:53:11.532Z,0.80
2018-09-25T14:55:45.535Z,0.70
2018-09-25T14:58:19.465Z,0.80
2018-09-25T15:00:53.379Z,1.00
2018-09-25T15:03:27.111Z,0.87
2018-09-25T15:06:00.784Z,1.00
2018-09-25T15:08:34.767Z,1.10
2018-09-25T15:11:08.537Z,0.83
2018-09-25T15:13:42.606Z,0.70
2018-09-25T15:16:16.593Z,1.17
2018-09-25T15:18:50.491Z,1.00
2018-09-25T15:21:24.506Z,1.40
2018-09-25T15:23:58.269Z,0.80
2018-09-25T15:26:32.267Z,0.80
2018-09-25T15:29:06.252Z,0.97
2018-09-25T15:31:40.257Z,1.17
2018-09-25T15:34:14.246Z,1.00
2018-09-25T15:36:48.055Z,1.00
2018-09-25T15:39:22.029Z,0.80
2018-09-25T15:41:55.902Z,1.03
2018-09-25T15:44:29.869Z,0.87
2018-09-25T15:47:03.861Z,1.30
2018-09-25T15:49:37.845Z,0.90
2018-09-25T15:52:11.318Z,1.10
2018-09-25T15:54:45.288Z,1.00
2018-09-25T15:57:19.255Z,0.90
2018-09-25T15:59:53.197Z,1.10
2018-09-25T16:02:27.090Z,1.07
2018-09-25T16:05:01.030Z,1.10
2018-09-25T16:07:35.025Z,0.90
2018-09-25T16:10:08.793Z,0.90
2018-09-25T16:12:42.751Z,1.00
2018-09-25T16:15:16.554Z,0.83
2018-09-25T16:17:57.122Z,1.20
2018-09-25T16:20:30.863Z,1.80
2018-09-25T16:23:04.769Z,1.50
2018-09-25T16:32:47.529Z,1.50
2018-09-25T16:35:21.604Z,1.67
2018-09-25T16:37:55.497Z,1.83
2018-09-25T16:40:29.304Z,1.80
2018-09-25T16:43:03.223Z,2.00
2018-09-25T16:45:37.132Z,1.60
2018-09-25T16:48:11.010Z,2.23
2018-09-25T16:50:44.895Z,2.27
2018-09-25T16:53:18.722Z,2.10
2018-09-25T16:55:52.414Z,1.80
2018-09-25T16:58:26.384Z,1.50
2018-09-25T17:01:00.297Z,2.00
2018-09-25T17:03:34.211Z,1.10
2018-09-25T17:06:08.309Z,1.17
2018-09-25T17:08:41.978Z,1.53
2018-09-25T17:11:15.970Z,1.10
2018-09-25T17:13:49.803Z,1.80
2018-09-25T17:16:23.798Z,1.20
2018-09-25T17:18:57.523Z,1.40
2018-09-25T17:21:31.387Z,1.30
2018-09-25T17:24:05.300Z,2.57
2018-09-25T17:26:39.172Z,1.27
2018-09-25T17:29:13.241Z,1.43
2018-09-25T17:31:47.000Z,1.63
2018-09-25T17:34:20.855Z,1.30
2018-09-25T17:36:54.684Z,1.53
2018-09-25T17:39:28.505Z,1.47
2018-09-25T17:42:02.410Z,1.33
2018-09-25T17:44:36.219Z,1.20
2018-09-25T17:47:10.236Z,1.23
2018-09-25T17:49:44.198Z,0.97
2018-09-25T17:52:18.317Z,1.20
2018-09-25T17:54:52.293Z,1.33
2018-09-25T17:57:26.253Z,2.43
2018-09-25T18:00:00.124Z,6.70
2018-09-25T18:02:33.964Z,1.67
2018-09-25T18:05:07.739Z,1.50
2018-09-25T18:07:41.972Z,1.83
2018-09-25T18:10:16.075Z,1.40
2018-09-25T18:12:50.057Z,1.30
2018-09-25T18:15:23.808Z,1.87
2018-09-25T18:17:57.738Z,1.20
2018-09-25T18:20:31.745Z,1.17
2018-09-25T18:23:05.605Z,1.47
2018-09-25T18:25:39.404Z,1.37
2018-09-25T18:28:13.419Z,1.43
2018-09-25T18:30:47.310Z,1.40
2018-09-25T18:33:21.373Z,1.80
2018-09-25T18:35:55.179Z,1.80
2018-09-25T18:38:29.227Z,1.90
2018-09-25T18:41:03.183Z,1.33
2018-09-25T18:43:36.917Z,1.63
2018-09-25T18:46:10.838Z,2.13
2018-09-25T18:48:44.828Z,1.67
2018-09-25T18:51:18.646Z,1.90
2018-09-25T18:53:52.648Z,1.57
2018-09-25T18:56:26.533Z,1.80
2018-09-25T18:59:00.483Z,2.60
2018-09-25T19:01:34.472Z,2.47
2018-09-25T19:04:08.510Z,2.70
2018-09-25T19:06:42.528Z,2.70
2018-09-25T19:09:16.459Z,2.63
2018-09-25T19:11:50.318Z,2.60
2018-09-25T19:14:24.202Z,3.60
2018-09-25T19:16:58.085Z,3.17
2018-09-25T19:19:32.164Z,3.20
2018-09-25T19:22:06.167Z,3.13
2018-09-25T19:24:40.033Z,3.23
2018-09-25T19:27:13.899Z,3.93
2018-09-25T19:29:47.737Z,3.50
2018-09-25T19:32:21.826Z,3.23
2018-09-25T19:34:55.765Z,3.03
2018-09-25T19:37:29.670Z,2.90
2018-09-25T19:40:03.619Z,4.33
2018-09-25T19:42:37.468Z,3.77
2018-09-25T19:45:11.464Z,2.53
2018-09-25T19:47:45.133Z,2.20
2018-09-25T19:50:19.197Z,4.00
2018-09-25T19:52:53.043Z,3.60
2018-09-25T19:55:27.042Z,3.90
2018-09-25T19:58:00.968Z,2.87
2018-09-25T20:00:34.896Z,3.90
2018-09-25T20:03:08.889Z,4.50
2018-09-25T20:05:42.929Z,3.73
2018-09-25T20:08:16.729Z,4.37
2018-09-25T20:10:50.617Z,3.90
2018-09-25T20:13:24.749Z,2.30
2018-09-25T20:16:01.595Z,3.43
2018-09-25T20:18:35.305Z,3.20
2018-09-25T20:21:09.179Z,3.10
2018-09-25T20:23:42.823Z,3.90
2018-09-25T20:26:16.530Z,3.60
2018-09-25T20:28:50.287Z,3.57
2018-09-25T20:31:24.058Z,3.77
2018-09-25T20:33:57.707Z,4.20
2018-09-25T20:36:31.311Z,4.00
2018-09-25T20:39:05.048Z,3.80
2018-09-25T20:41:38.801Z,3.60
2018-09-25T20:44:12.713Z,3.07
2018-09-25T20:46:46.458Z,3.20
2018-09-25T20:49:20.268Z,2.80
2018-09-25T20:51:54.092Z,3.27
2018-09-25T20:54:27.804Z,3.40
2018-09-25T20:57:01.619Z,3.40
2018-09-25T20:59:35.342Z,3.13
2018-09-25T21:02:09.116Z,3.20
2018-09-25T21:04:42.991Z,2.70
2018-09-25T21:07:16.742Z,3.00
2018-09-25T21:09:50.712Z,2.60
2018-09-25T21:12:24.428Z,2.80
2018-09-25T21:14:58.093Z,3.03
2018-09-25T21:17:32.102Z,2.90
2018-09-25T21:20:05.850Z,3.27
2018-09-25T21:22:39.642Z,2.83
2018-09-25T21:25:13.359Z,2.90
2018-09-25T21:27:47.170Z,3.03
2018-09-25T21:30:21.029Z,2.73
2018-09-25T21:32:55.003Z,2.90
2018-09-25T21:35:28.785Z,3.63
2018-09-25T21:38:02.524Z,3.00
2018-09-25T21:40:36.364Z,3.50
2018-09-25T21:43:10.121Z,3.00
2018-09-25T21:45:43.729Z,2.63
2018-09-25T21:48:17.408Z,3.00
2018-09-25T21:50:51.176Z,3.00
2018-09-25T21:53:25.048Z,3.17
2018-09-25T21:55:58.795Z,3.03
2018-09-25T21:58:32.593Z,3.10
2018-09-25T22:01:06.355Z,3.33
2018-09-25T22:03:40.132Z,3.43
2018-09-25T22:06:13.964Z,3.13
2018-09-25T22:08:47.727Z,3.70
2018-09-25T22:11:21.523Z,3.20
2018-09-25T22:13:55.291Z,3.60
2018-09-25T22:16:29.112Z,3.50
2018-09-25T22:19:02.872Z,3.03
2018-09-25T22:21:36.702Z,3.10
2018-09-25T22:24:10.441Z,2.80
2018-09-25T22:26:44.228Z,3.30
2018-09-25T22:29:18.074Z,3.00
2018-09-25T22:31:51.792Z,2.90
2018-09-25T22:34:25.529Z,2.77
2018-09-25T22:36:59.234Z,3.20
2018-09-25T22:39:33.042Z,2.60
2018-09-25T22:42:06.852Z,2.53
2018-09-25T22:44:40.671Z,2.70
2018-09-25T22:47:14.504Z,2.80
2018-09-25T22:49:48.088Z,3.13
2018-09-25T22:52:21.881Z,3.30
2018-09-25T22:54:55.739Z,2.67
2018-09-25T22:57:29.450Z,3.30
2018-09-25T23:00:03.107Z,2.70
2018-09-25T23:02:36.876Z,2.70
2018-09-25T23:05:10.583Z,2.57
2018-09-25T23:07:44.381Z,3.10
2018-09-25T23:10:18.248Z,2.80
2018-09-25T23:12:52.083Z,3.10
2018-09-25T23:15:25.854Z,3.30
2018-09-25T23:17:59.604Z,3.30
2018-09-25T23:20:33.515Z,3.50
2018-09-25T23:23:07.367Z,3.37
2018-09-25T23:25:41.280Z,2.93
2018-09-25T23:28:15.026Z,3.60
2018-09-25T23:30:48.721Z,2.93
2018-09-25T23:33:22.537Z,3.20
2018-09-25T23:35:56.290Z,3.37
2018-09-25T23:38:30.095Z,3.00
2018-09-25T23:41:03.979Z,2.50
2018-09-25T23:43:37.828Z,2.90
2018-09-25T23:46:44.861Z,2.60
2018-09-25T23:49:18.840Z,2.47
2018-09-25T23:51:59.719Z,2.60
2018-09-25T23:54:33.217Z,2.70
2018-09-25T23:57:12.283Z,2.63
2018-09-25T23:59:46.739Z,2.67
